sensor_id;sensor_type;location;lat;lon;timestamp;P1;durP1;ratioP1;P2;durP2;ratioP2
57746;SDS011;43580;44.014;20.466;2023-04-16T00:01:50;43.47;;;22.10;;
57746;SDS011;43580;44.014;20.466;2023-04-16T00:04:16;55.08;;;29.42;;
57746;SDS011;43580;44.014;20.466;2023-04-16T00:06:47;62.95;;;32.10;;
57746;SDS011;43580;44.014;20.466;2023-04-16T00:09:13;66.05;;;31.70;;
57746;SDS011;43580;44.014;20.466;2023-04-16T00:11:39;65.40;;;32.80;;
57746;SDS011;43580;44.014;20.466;2023-04-16T00:14:07;62.60;;;31.60;;
57746;SDS011;43580;44.014;20.466;2023-04-16T00:16:33;57.25;;;29.67;;
57746;SDS011;43580;44.014;20.466;2023-04-16T00:19:00;51.92;;;25.77;;
57746;SDS011;43580;44.014;20.466;2023-04-16T00:21:26;50.85;;;24.38;;
57746;SDS011;43580;44.014;20.466;2023-04-16T00:23:52;44.30;;;20.85;;
57746;SDS011;43580;44.014;20.466;2023-04-16T00:26:18;45.47;;;22.30;;
57746;SDS011;43580;44.014;20.466;2023-04-16T00:28:44;41.13;;;21.15;;
57746;SDS011;43580;44.014;20.466;2023-04-16T00:31:10;43.00;;;21.08;;
57746;SDS011;43580;44.014;20.466;2023-04-16T00:33:36;49.25;;;24.25;;
57746;SDS011;43580;44.014;20.466;2023-04-16T00:36:02;67.88;;;34.28;;
57746;SDS011;43580;44.014;20.466;2023-04-16T00:38:29;66.68;;;32.75;;
57746;SDS011;43580;44.014;20.466;2023-04-16T00:40:56;57.33;;;28.70;;
57746;SDS011;43580;44.014;20.466;2023-04-16T00:43:23;51.78;;;26.55;;
57746;SDS011;43580;44.014;20.466;2023-04-16T00:45:52;53.75;;;28.20;;
57746;SDS011;43580;44.014;20.466;2023-04-16T00:48:19;51.47;;;27.08;;
57746;SDS011;43580;44.014;20.466;2023-04-16T00:50:46;49.50;;;26.83;;
57746;SDS011;43580;44.014;20.466;2023-04-16T00:53:12;49.50;;;25.60;;
57746;SDS011;43580;44.014;20.466;2023-04-16T00:55:38;52.10;;;27.52;;
57746;SDS011;43580;44.014;20.466;2023-04-16T00:58:04;48.00;;;25.63;;
57746;SDS011;43580;44.014;20.466;2023-04-16T01:00:31;49.78;;;24.48;;
57746;SDS011;43580;44.014;20.466;2023-04-16T01:02:57;54.63;;;25.05;;
57746;SDS011;43580;44.014;20.466;2023-04-16T01:05:24;38.53;;;20.05;;
57746;SDS011;43580;44.014;20.466;2023-04-16T01:07:50;45.63;;;21.15;;
57746;SDS011;43580;44.014;20.466;2023-04-16T01:10:16;45.05;;;22.75;;
57746;SDS011;43580;44.014;20.466;2023-04-16T01:12:45;72.40;;;35.30;;
57746;SDS011;43580;44.014;20.466;2023-04-16T01:15:11;57.28;;;26.73;;
57746;SDS011;43580;44.014;20.466;2023-04-16T01:17:37;61.38;;;30.65;;
57746;SDS011;43580;44.014;20.466;2023-04-16T01:20:03;100.45;;;49.60;;
57746;SDS011;43580;44.014;20.466;2023-04-16T01:22:29;73.10;;;36.70;;
57746;SDS011;43580;44.014;20.466;2023-04-16T01:24:56;64.10;;;32.58;;
57746;SDS011;43580;44.014;20.466;2023-04-16T01:27:22;70.00;;;33.42;;
57746;SDS011;43580;44.014;20.466;2023-04-16T01:29:48;63.85;;;32.83;;
57746;SDS011;43580;44.014;20.466;2023-04-16T01:32:14;59.63;;;31.52;;
57746;SDS011;43580;44.014;20.466;2023-04-16T01:34:43;59.92;;;29.60;;
57746;SDS011;43580;44.014;20.466;2023-04-16T01:37:09;60.25;;;28.00;;
57746;SDS011;43580;44.014;20.466;2023-04-16T01:39:36;55.47;;;27.17;;
57746;SDS011;43580;44.014;20.466;2023-04-16T01:42:02;61.85;;;33.42;;
57746;SDS011;43580;44.014;20.466;2023-04-16T01:44:28;86.75;;;40.08;;
57746;SDS011;43580;44.014;20.466;2023-04-16T01:46:54;95.28;;;45.50;;
57746;SDS011;43580;44.014;20.466;2023-04-16T01:49:21;84.28;;;42.95;;
57746;SDS011;43580;44.014;20.466;2023-04-16T01:51:47;75.50;;;37.22;;
57746;SDS011;43580;44.014;20.466;2023-04-16T01:54:16;49.58;;;26.75;;
57746;SDS011;43580;44.014;20.466;2023-04-16T01:56:42;48.63;;;27.33;;
57746;SDS011;43580;44.014;20.466;2023-04-16T01:59:09;32.15;;;16.05;;
57746;SDS011;43580;44.014;20.466;2023-04-16T02:01:36;33.30;;;17.27;;
57746;SDS011;43580;44.014;20.466;2023-04-16T02:04:02;30.42;;;15.27;;
57746;SDS011;43580;44.014;20.466;2023-04-16T02:06:29;22.50;;;11.40;;
57746;SDS011;43580;44.014;20.466;2023-04-16T02:08:55;34.55;;;17.73;;
57746;SDS011;43580;44.014;20.466;2023-04-16T02:11:21;38.53;;;20.25;;
57746;SDS011;43580;44.014;20.466;2023-04-16T02:13:47;31.52;;;17.73;;
57746;SDS011;43580;44.014;20.466;2023-04-16T02:16:13;32.47;;;15.68;;
57746;SDS011;43580;44.014;20.466;2023-04-16T02:18:40;30.02;;;15.40;;
57746;SDS011;43580;44.014;20.466;2023-04-16T02:21:08;27.58;;;14.07;;
57746;SDS011;43580;44.014;20.466;2023-04-16T02:23:34;21.05;;;10.90;;
57746;SDS011;43580;44.014;20.466;2023-04-16T02:26:01;22.90;;;11.07;;
57746;SDS011;43580;44.014;20.466;2023-04-16T02:28:28;28.58;;;13.98;;
57746;SDS011;43580;44.014;20.466;2023-04-16T02:30:54;29.38;;;16.40;;
57746;SDS011;43580;44.014;20.466;2023-04-16T02:33:20;27.10;;;15.13;;
57746;SDS011;43580;44.014;20.466;2023-04-16T02:35:46;28.13;;;14.23;;
57746;SDS011;43580;44.014;20.466;2023-04-16T02:38:12;24.77;;;13.55;;
57746;SDS011;43580;44.014;20.466;2023-04-16T02:40:38;29.48;;;14.60;;
57746;SDS011;43580;44.014;20.466;2023-04-16T02:43:04;35.75;;;18.05;;
57746;SDS011;43580;44.014;20.466;2023-04-16T02:45:33;42.05;;;20.48;;
57746;SDS011;43580;44.014;20.466;2023-04-16T02:47:59;40.28;;;20.67;;
57746;SDS011;43580;44.014;20.466;2023-04-16T02:50:25;48.20;;;26.38;;
57746;SDS011;43580;44.014;20.466;2023-04-16T02:52:54;90.72;;;42.72;;
57746;SDS011;43580;44.014;20.466;2023-04-16T02:55:20;65.13;;;32.22;;
57746;SDS011;43580;44.014;20.466;2023-04-16T02:57:46;47.15;;;25.83;;
57746;SDS011;43580;44.014;20.466;2023-04-16T03:00:12;46.42;;;25.73;;
57746;SDS011;43580;44.014;20.466;2023-04-16T03:02:38;44.20;;;23.88;;
57746;SDS011;43580;44.014;20.466;2023-04-16T03:05:06;36.15;;;20.58;;
57746;SDS011;43580;44.014;20.466;2023-04-16T03:07:32;35.53;;;20.65;;
57746;SDS011;43580;44.014;20.466;2023-04-16T03:09:59;49.72;;;29.05;;
57746;SDS011;43580;44.014;20.466;2023-04-16T03:12:27;36.28;;;19.50;;
57746;SDS011;43580;44.014;20.466;2023-04-16T03:14:53;37.95;;;20.98;;
57746;SDS011;43580;44.014;20.466;2023-04-16T03:17:19;42.20;;;22.95;;
57746;SDS011;43580;44.014;20.466;2023-04-16T03:19:46;35.15;;;17.42;;
57746;SDS011;43580;44.014;20.466;2023-04-16T03:22:12;34.17;;;17.67;;
57746;SDS011;43580;44.014;20.466;2023-04-16T03:24:38;35.47;;;15.70;;
57746;SDS011;43580;44.014;20.466;2023-04-16T03:27:06;32.38;;;16.00;;
57746;SDS011;43580;44.014;20.466;2023-04-16T03:29:35;30.23;;;15.55;;
57746;SDS011;43580;44.014;20.466;2023-04-16T03:32:03;35.28;;;17.27;;
57746;SDS011;43580;44.014;20.466;2023-04-16T03:34:29;37.60;;;19.17;;
57746;SDS011;43580;44.014;20.466;2023-04-16T03:36:55;33.20;;;16.58;;
57746;SDS011;43580;44.014;20.466;2023-04-16T03:39:21;27.23;;;14.43;;
57746;SDS011;43580;44.014;20.466;2023-04-16T03:41:48;27.73;;;13.50;;
57746;SDS011;43580;44.014;20.466;2023-04-16T03:44:14;25.98;;;12.80;;
57746;SDS011;43580;44.014;20.466;2023-04-16T03:46:42;30.70;;;16.42;;
57746;SDS011;43580;44.014;20.466;2023-04-16T03:49:08;42.33;;;20.63;;
57746;SDS011;43580;44.014;20.466;2023-04-16T03:51:34;35.97;;;17.00;;
57746;SDS011;43580;44.014;20.466;2023-04-16T03:54:00;40.85;;;19.00;;
57746;SDS011;43580;44.014;20.466;2023-04-16T03:56:26;26.10;;;13.25;;
57746;SDS011;43580;44.014;20.466;2023-04-16T03:58:52;30.35;;;13.73;;
57746;SDS011;43580;44.014;20.466;2023-04-16T04:01:18;26.85;;;13.73;;
57746;SDS011;43580;44.014;20.466;2023-04-16T04:03:45;31.02;;;14.18;;
57746;SDS011;43580;44.014;20.466;2023-04-16T04:06:11;28.63;;;13.75;;
57746;SDS011;43580;44.014;20.466;2023-04-16T04:08:37;29.13;;;15.02;;
57746;SDS011;43580;44.014;20.466;2023-04-16T04:11:03;49.13;;;27.65;;
57746;SDS011;43580;44.014;20.466;2023-04-16T04:13:29;33.03;;;16.65;;
57746;SDS011;43580;44.014;20.466;2023-04-16T04:15:58;30.05;;;13.65;;
57746;SDS011;43580;44.014;20.466;2023-04-16T04:18:24;31.50;;;15.50;;
57746;SDS011;43580;44.014;20.466;2023-04-16T04:20:50;26.92;;;14.98;;
57746;SDS011;43580;44.014;20.466;2023-04-16T04:23:16;34.42;;;21.67;;
57746;SDS011;43580;44.014;20.466;2023-04-16T04:25:43;31.83;;;17.30;;
57746;SDS011;43580;44.014;20.466;2023-04-16T04:28:09;30.27;;;15.30;;
57746;SDS011;43580;44.014;20.466;2023-04-16T04:30:35;34.60;;;18.85;;
57746;SDS011;43580;44.014;20.466;2023-04-16T04:33:01;42.95;;;19.10;;
57746;SDS011;43580;44.014;20.466;2023-04-16T04:35:27;37.00;;;17.50;;
57746;SDS011;43580;44.014;20.466;2023-04-16T04:37:53;32.83;;;18.08;;
57746;SDS011;43580;44.014;20.466;2023-04-16T04:40:22;37.22;;;19.42;;
57746;SDS011;43580;44.014;20.466;2023-04-16T04:42:50;45.28;;;22.70;;
57746;SDS011;43580;44.014;20.466;2023-04-16T04:45:16;35.97;;;17.83;;
57746;SDS011;43580;44.014;20.466;2023-04-16T04:47:45;42.80;;;17.33;;
57746;SDS011;43580;44.014;20.466;2023-04-16T04:50:11;23.13;;;12.35;;
57746;SDS011;43580;44.014;20.466;2023-04-16T04:52:37;39.00;;;18.80;;
57746;SDS011;43580;44.014;20.466;2023-04-16T04:55:03;32.60;;;17.33;;
57746;SDS011;43580;44.014;20.466;2023-04-16T04:57:29;35.38;;;16.70;;
57746;SDS011;43580;44.014;20.466;2023-04-16T04:59:58;25.65;;;13.70;;
57746;SDS011;43580;44.014;20.466;2023-04-16T05:02:24;26.67;;;14.45;;
57746;SDS011;43580;44.014;20.466;2023-04-16T05:04:50;29.00;;;16.23;;
57746;SDS011;43580;44.014;20.466;2023-04-16T05:07:16;31.02;;;17.67;;
57746;SDS011;43580;44.014;20.466;2023-04-16T05:09:42;27.35;;;14.48;;
57746;SDS011;43580;44.014;20.466;2023-04-16T05:12:08;32.50;;;21.35;;
57746;SDS011;43580;44.014;20.466;2023-04-16T05:14:34;38.38;;;27.25;;
57746;SDS011;43580;44.014;20.466;2023-04-16T05:17:00;28.77;;;15.23;;
57746;SDS011;43580;44.014;20.466;2023-04-16T05:19:26;27.25;;;14.65;;
57746;SDS011;43580;44.014;20.466;2023-04-16T05:21:53;35.75;;;27.27;;
57746;SDS011;43580;44.014;20.466;2023-04-16T05:24:19;35.53;;;24.05;;
57746;SDS011;43580;44.014;20.466;2023-04-16T05:26:45;28.45;;;14.75;;
57746;SDS011;43580;44.014;20.466;2023-04-16T05:29:11;26.10;;;14.35;;
57746;SDS011;43580;44.014;20.466;2023-04-16T05:31:40;30.35;;;17.42;;
57746;SDS011;43580;44.014;20.466;2023-04-16T05:34:06;27.70;;;15.43;;
57746;SDS011;43580;44.014;20.466;2023-04-16T05:36:32;25.67;;;14.00;;
57746;SDS011;43580;44.014;20.466;2023-04-16T05:38:58;26.55;;;13.38;;
57746;SDS011;43580;44.014;20.466;2023-04-16T05:41:24;32.88;;;16.00;;
57746;SDS011;43580;44.014;20.466;2023-04-16T05:43:50;44.75;;;22.65;;
57746;SDS011;43580;44.014;20.466;2023-04-16T05:46:16;54.08;;;30.25;;
57746;SDS011;43580;44.014;20.466;2023-04-16T05:48:42;54.00;;;28.58;;
57746;SDS011;43580;44.014;20.466;2023-04-16T05:51:08;41.30;;;25.10;;
57746;SDS011;43580;44.014;20.466;2023-04-16T05:53:37;52.05;;;27.45;;
57746;SDS011;43580;44.014;20.466;2023-04-16T05:56:06;48.03;;;25.80;;
57746;SDS011;43580;44.014;20.466;2023-04-16T05:58:32;58.58;;;31.95;;
57746;SDS011;43580;44.014;20.466;2023-04-16T06:00:58;35.45;;;20.63;;
57746;SDS011;43580;44.014;20.466;2023-04-16T06:03:25;29.75;;;18.15;;
57746;SDS011;43580;44.014;20.466;2023-04-16T06:05:51;34.03;;;17.98;;
57746;SDS011;43580;44.014;20.466;2023-04-16T06:08:17;33.53;;;18.42;;
57746;SDS011;43580;44.014;20.466;2023-04-16T06:10:46;33.72;;;19.00;;
57746;SDS011;43580;44.014;20.466;2023-04-16T06:13:12;36.85;;;22.17;;
57746;SDS011;43580;44.014;20.466;2023-04-16T06:15:38;44.67;;;28.38;;
57746;SDS011;43580;44.014;20.466;2023-04-16T06:18:04;35.42;;;25.25;;
57746;SDS011;43580;44.014;20.466;2023-04-16T06:20:30;43.15;;;30.00;;
57746;SDS011;43580;44.014;20.466;2023-04-16T06:22:56;56.92;;;41.03;;
57746;SDS011;43580;44.014;20.466;2023-04-16T06:25:22;51.38;;;33.28;;
57746;SDS011;43580;44.014;20.466;2023-04-16T06:27:51;41.00;;;25.30;;
57746;SDS011;43580;44.014;20.466;2023-04-16T06:30:17;58.25;;;32.17;;
57746;SDS011;43580;44.014;20.466;2023-04-16T06:32:44;67.32;;;50.28;;
57746;SDS011;43580;44.014;20.466;2023-04-16T06:35:10;40.13;;;23.48;;
57746;SDS011;43580;44.014;20.466;2023-04-16T06:37:36;45.08;;;27.50;;
57746;SDS011;43580;44.014;20.466;2023-04-16T06:40:02;39.50;;;23.05;;
57746;SDS011;43580;44.014;20.466;2023-04-16T06:42:29;42.15;;;28.20;;
57746;SDS011;43580;44.014;20.466;2023-04-16T06:44:55;35.83;;;21.48;;
57746;SDS011;43580;44.014;20.466;2023-04-16T06:47:23;29.95;;;18.27;;
57746;SDS011;43580;44.014;20.466;2023-04-16T06:49:49;45.00;;;26.98;;
57746;SDS011;43580;44.014;20.466;2023-04-16T06:52:15;35.00;;;21.48;;
57746;SDS011;43580;44.014;20.466;2023-04-16T06:54:42;35.28;;;21.00;;
57746;SDS011;43580;44.014;20.466;2023-04-16T06:57:08;35.88;;;18.85;;
57746;SDS011;43580;44.014;20.466;2023-04-16T06:59:38;31.05;;;18.35;;
57746;SDS011;43580;44.014;20.466;2023-04-16T07:02:10;43.50;;;26.58;;
57746;SDS011;43580;44.014;20.466;2023-04-16T07:04:36;36.67;;;19.17;;
57746;SDS011;43580;44.014;20.466;2023-04-16T07:07:02;33.47;;;19.20;;
57746;SDS011;43580;44.014;20.466;2023-04-16T07:09:28;52.90;;;27.90;;
57746;SDS011;43580;44.014;20.466;2023-04-16T07:11:54;42.30;;;26.67;;
57746;SDS011;43580;44.014;20.466;2023-04-16T07:14:20;73.95;;;42.60;;
57746;SDS011;43580;44.014;20.466;2023-04-16T07:16:46;47.88;;;27.98;;
57746;SDS011;43580;44.014;20.466;2023-04-16T07:19:12;43.13;;;24.40;;
57746;SDS011;43580;44.014;20.466;2023-04-16T07:21:41;33.75;;;20.35;;
57746;SDS011;43580;44.014;20.466;2023-04-16T07:24:08;38.95;;;22.27;;
57746;SDS011;43580;44.014;20.466;2023-04-16T07:26:35;32.45;;;21.13;;
57746;SDS011;43580;44.014;20.466;2023-04-16T07:29:01;32.65;;;20.58;;
57746;SDS011;43580;44.014;20.466;2023-04-16T07:31:27;38.38;;;24.73;;
57746;SDS011;43580;44.014;20.466;2023-04-16T07:33:53;39.30;;;23.10;;
57746;SDS011;43580;44.014;20.466;2023-04-16T07:36:22;39.15;;;24.15;;
57746;SDS011;43580;44.014;20.466;2023-04-16T07:38:48;44.45;;;27.25;;
57746;SDS011;43580;44.014;20.466;2023-04-16T07:41:14;46.78;;;27.23;;
57746;SDS011;43580;44.014;20.466;2023-04-16T07:43:40;41.80;;;26.85;;
57746;SDS011;43580;44.014;20.466;2023-04-16T07:46:06;40.20;;;24.25;;
57746;SDS011;43580;44.014;20.466;2023-04-16T07:48:35;27.35;;;17.02;;
57746;SDS011;43580;44.014;20.466;2023-04-16T07:51:01;32.65;;;17.33;;
57746;SDS011;43580;44.014;20.466;2023-04-16T07:53:30;20.77;;;13.05;;
57746;SDS011;43580;44.014;20.466;2023-04-16T07:55:56;17.23;;;10.43;;
57746;SDS011;43580;44.014;20.466;2023-04-16T07:58:22;25.63;;;15.75;;
57746;SDS011;43580;44.014;20.466;2023-04-16T08:00:48;28.80;;;18.73;;
57746;SDS011;43580;44.014;20.466;2023-04-16T08:03:14;32.08;;;18.00;;
57746;SDS011;43580;44.014;20.466;2023-04-16T08:05:40;40.53;;;20.67;;
57746;SDS011;43580;44.014;20.466;2023-04-16T08:08:06;32.10;;;18.77;;
57746;SDS011;43580;44.014;20.466;2023-04-16T08:10:32;14.07;;;8.38;;
57746;SDS011;43580;44.014;20.466;2023-04-16T08:12:59;12.90;;;8.40;;
57746;SDS011;43580;44.014;20.466;2023-04-16T08:15:25;18.80;;;10.50;;
57746;SDS011;43580;44.014;20.466;2023-04-16T08:17:52;17.30;;;10.85;;
57746;SDS011;43580;44.014;20.466;2023-04-16T08:20:20;25.38;;;13.25;;
57746;SDS011;43580;44.014;20.466;2023-04-16T08:22:47;14.30;;;8.65;;
57746;SDS011;43580;44.014;20.466;2023-04-16T08:25:13;13.18;;;8.52;;
57746;SDS011;43580;44.014;20.466;2023-04-16T08:27:39;14.25;;;7.30;;
57746;SDS011;43580;44.014;20.466;2023-04-16T08:30:06;13.32;;;7.50;;
57746;SDS011;43580;44.014;20.466;2023-04-16T08:32:32;13.63;;;7.45;;
57746;SDS011;43580;44.014;20.466;2023-04-16T08:34:58;17.10;;;6.82;;
57746;SDS011;43580;44.014;20.466;2023-04-16T08:37:25;13.48;;;7.50;;
57746;SDS011;43580;44.014;20.466;2023-04-16T08:39:51;11.25;;;6.18;;
57746;SDS011;43580;44.014;20.466;2023-04-16T08:42:22;17.08;;;8.70;;
57746;SDS011;43580;44.014;20.466;2023-04-16T08:44:48;15.23;;;7.15;;
57746;SDS011;43580;44.014;20.466;2023-04-16T08:47:17;11.77;;;6.07;;
57746;SDS011;43580;44.014;20.466;2023-04-16T08:49:46;9.20;;;4.72;;
57746;SDS011;43580;44.014;20.466;2023-04-16T08:52:17;13.25;;;5.43;;
57746;SDS011;43580;44.014;20.466;2023-04-16T08:54:51;10.77;;;5.20;;
57746;SDS011;43580;44.014;20.466;2023-04-16T08:57:22;13.63;;;5.13;;
57746;SDS011;43580;44.014;20.466;2023-04-16T08:59:50;9.13;;;4.68;;
57746;SDS011;43580;44.014;20.466;2023-04-16T09:02:19;7.50;;;3.25;;
57746;SDS011;43580;44.014;20.466;2023-04-16T09:04:45;8.73;;;3.50;;
57746;SDS011;43580;44.014;20.466;2023-04-16T09:07:11;9.38;;;5.65;;
57746;SDS011;43580;44.014;20.466;2023-04-16T09:09:37;10.45;;;5.65;;
57746;SDS011;43580;44.014;20.466;2023-04-16T09:12:04;10.75;;;6.90;;
57746;SDS011;43580;44.014;20.466;2023-04-16T09:14:30;9.88;;;4.60;;
57746;SDS011;43580;44.014;20.466;2023-04-16T09:16:56;9.00;;;3.92;;
57746;SDS011;43580;44.014;20.466;2023-04-16T09:19:25;12.38;;;5.43;;
57746;SDS011;43580;44.014;20.466;2023-04-16T09:21:51;17.95;;;10.02;;
57746;SDS011;43580;44.014;20.466;2023-04-16T09:24:17;10.02;;;5.05;;
57746;SDS011;43580;44.014;20.466;2023-04-16T09:26:43;11.70;;;5.95;;
57746;SDS011;43580;44.014;20.466;2023-04-16T09:29:09;49.90;;;24.10;;
57746;SDS011;43580;44.014;20.466;2023-04-16T09:31:35;31.00;;;17.00;;
57746;SDS011;43580;44.014;20.466;2023-04-16T09:34:02;10.98;;;4.72;;
57746;SDS011;43580;44.014;20.466;2023-04-16T09:36:32;6.72;;;3.90;;
57746;SDS011;43580;44.014;20.466;2023-04-16T09:38:58;29.88;;;15.68;;
57746;SDS011;43580;44.014;20.466;2023-04-16T09:41:25;54.35;;;26.38;;
57746;SDS011;43580;44.014;20.466;2023-04-16T09:43:52;75.07;;;33.80;;
57746;SDS011;43580;44.014;20.466;2023-04-16T09:46:22;24.38;;;11.35;;
57746;SDS011;43580;44.014;20.466;2023-04-16T09:48:48;36.40;;;15.45;;
57746;SDS011;43580;44.014;20.466;2023-04-16T09:51:15;10.65;;;5.50;;
57746;SDS011;43580;44.014;20.466;2023-04-16T09:53:41;8.68;;;4.70;;
57746;SDS011;43580;44.014;20.466;2023-04-16T09:56:10;15.23;;;5.65;;
57746;SDS011;43580;44.014;20.466;2023-04-16T09:58:36;13.60;;;7.15;;
57746;SDS011;43580;44.014;20.466;2023-04-16T10:03:32;12.45;;;7.50;;
57746;SDS011;43580;44.014;20.466;2023-04-16T10:06:14;11.00;;;5.25;;
57746;SDS011;43580;44.014;20.466;2023-04-16T10:08:46;10.00;;;5.60;;
57746;SDS011;43580;44.014;20.466;2023-04-16T10:11:13;11.18;;;5.90;;
57746;SDS011;43580;44.014;20.466;2023-04-16T10:13:39;18.50;;;12.35;;
57746;SDS011;43580;44.014;20.466;2023-04-16T10:16:06;25.15;;;20.17;;
57746;SDS011;43580;44.014;20.466;2023-04-16T10:18:35;15.93;;;12.02;;
57746;SDS011;43580;44.014;20.466;2023-04-16T10:21:02;7.82;;;3.97;;
57746;SDS011;43580;44.014;20.466;2023-04-16T10:23:32;7.13;;;4.30;;
57746;SDS011;43580;44.014;20.466;2023-04-16T10:25:58;8.20;;;2.63;;
57746;SDS011;43580;44.014;20.466;2023-04-16T10:28:25;8.10;;;2.80;;
57746;SDS011;43580;44.014;20.466;2023-04-16T10:30:53;8.45;;;4.72;;
57746;SDS011;43580;44.014;20.466;2023-04-16T10:33:20;60.00;;;41.97;;
57746;SDS011;43580;44.014;20.466;2023-04-16T10:35:49;96.32;;;68.20;;
57746;SDS011;43580;44.014;20.466;2023-04-16T10:38:23;40.45;;;28.15;;
57746;SDS011;43580;44.014;20.466;2023-04-16T10:40:49;19.35;;;11.30;;
57746;SDS011;43580;44.014;20.466;2023-04-16T10:43:16;16.50;;;8.77;;
57746;SDS011;43580;44.014;20.466;2023-04-16T10:45:43;16.25;;;10.27;;
57746;SDS011;43580;44.014;20.466;2023-04-16T10:48:09;7.97;;;3.53;;
57746;SDS011;43580;44.014;20.466;2023-04-16T10:50:38;6.13;;;2.15;;
57746;SDS011;43580;44.014;20.466;2023-04-16T10:53:19;10.63;;;5.75;;
57746;SDS011;43580;44.014;20.466;2023-04-16T10:56:30;8.23;;;5.00;;
57746;SDS011;43580;44.014;20.466;2023-04-16T10:58:37;12.20;;;6.82;;
57746;SDS011;43580;44.014;20.466;2023-04-16T11:01:07;8.43;;;4.03;;
57746;SDS011;43580;44.014;20.466;2023-04-16T11:03:39;8.18;;;5.00;;
57746;SDS011;43580;44.014;20.466;2023-04-16T11:06:12;10.05;;;4.47;;
57746;SDS011;43580;44.014;20.466;2023-04-16T11:11:08;30.90;;;16.73;;
57746;SDS011;43580;44.014;20.466;2023-04-16T11:13:35;129.73;;;70.72;;
57746;SDS011;43580;44.014;20.466;2023-04-16T11:16:01;146.18;;;75.47;;
57746;SDS011;43580;44.014;20.466;2023-04-16T11:18:27;48.28;;;26.75;;
57746;SDS011;43580;44.014;20.466;2023-04-16T11:20:54;21.73;;;13.15;;
57746;SDS011;43580;44.014;20.466;2023-04-16T11:23:20;52.40;;;29.40;;
57746;SDS011;43580;44.014;20.466;2023-04-16T11:25:46;24.02;;;15.40;;
57746;SDS011;43580;44.014;20.466;2023-04-16T11:28:12;20.75;;;13.00;;
57746;SDS011;43580;44.014;20.466;2023-04-16T11:30:38;21.42;;;11.85;;
57746;SDS011;43580;44.014;20.466;2023-04-16T11:33:09;21.60;;;15.15;;
57746;SDS011;43580;44.014;20.466;2023-04-16T11:35:38;18.25;;;10.88;;
57746;SDS011;43580;44.014;20.466;2023-04-16T11:38:05;12.70;;;8.07;;
57746;SDS011;43580;44.014;20.466;2023-04-16T11:40:31;11.85;;;7.15;;
57746;SDS011;43580;44.014;20.466;2023-04-16T11:43:03;18.48;;;7.47;;
57746;SDS011;43580;44.014;20.466;2023-04-16T11:45:29;11.20;;;7.22;;
57746;SDS011;43580;44.014;20.466;2023-04-16T11:47:55;36.97;;;20.00;;
57746;SDS011;43580;44.014;20.466;2023-04-16T11:50:28;13.15;;;7.85;;
57746;SDS011;43580;44.014;20.466;2023-04-16T11:52:57;16.83;;;8.32;;
57746;SDS011;43580;44.014;20.466;2023-04-16T11:55:27;15.38;;;8.18;;
57746;SDS011;43580;44.014;20.466;2023-04-16T11:57:53;8.60;;;5.80;;
57746;SDS011;43580;44.014;20.466;2023-04-16T12:00:20;17.95;;;10.98;;
57746;SDS011;43580;44.014;20.466;2023-04-16T12:02:50;24.52;;;14.88;;
57746;SDS011;43580;44.014;20.466;2023-04-16T12:05:35;15.48;;;9.65;;
57746;SDS011;43580;44.014;20.466;2023-04-16T12:08:09;15.63;;;9.10;;
57746;SDS011;43580;44.014;20.466;2023-04-16T12:10:36;11.45;;;6.72;;
57746;SDS011;43580;44.014;20.466;2023-04-16T12:13:12;7.43;;;4.68;;
57746;SDS011;43580;44.014;20.466;2023-04-16T12:15:47;9.77;;;5.18;;
57746;SDS011;43580;44.014;20.466;2023-04-16T12:18:16;7.82;;;4.68;;
57746;SDS011;43580;44.014;20.466;2023-04-16T12:20:43;9.63;;;5.22;;
57746;SDS011;43580;44.014;20.466;2023-04-16T12:23:20;8.25;;;4.72;;
57746;SDS011;43580;44.014;20.466;2023-04-16T12:25:47;26.02;;;10.73;;
57746;SDS011;43580;44.014;20.466;2023-04-16T12:28:14;22.00;;;12.95;;
57746;SDS011;43580;44.014;20.466;2023-04-16T12:30:47;14.40;;;7.05;;
57746;SDS011;43580;44.014;20.466;2023-04-16T12:33:15;15.02;;;9.57;;
57746;SDS011;43580;44.014;20.466;2023-04-16T12:35:41;13.30;;;7.63;;
57746;SDS011;43580;44.014;20.466;2023-04-16T12:38:09;19.90;;;12.23;;
57746;SDS011;43580;44.014;20.466;2023-04-16T12:40:40;12.73;;;7.75;;
57746;SDS011;43580;44.014;20.466;2023-04-16T12:43:06;14.02;;;7.90;;
57746;SDS011;43580;44.014;20.466;2023-04-16T12:45:35;14.63;;;9.80;;
57746;SDS011;43580;44.014;20.466;2023-04-16T12:48:01;13.23;;;7.40;;
57746;SDS011;43580;44.014;20.466;2023-04-16T12:50:27;13.00;;;7.88;;
57746;SDS011;43580;44.014;20.466;2023-04-16T12:52:57;12.20;;;7.05;;
57746;SDS011;43580;44.014;20.466;2023-04-16T12:55:23;12.18;;;6.20;;
57746;SDS011;43580;44.014;20.466;2023-04-16T12:57:50;10.18;;;5.40;;
57746;SDS011;43580;44.014;20.466;2023-04-16T13:00:19;11.80;;;5.85;;
57746;SDS011;43580;44.014;20.466;2023-04-16T13:02:47;12.52;;;5.68;;
57746;SDS011;43580;44.014;20.466;2023-04-16T13:05:13;14.68;;;6.30;;
57746;SDS011;43580;44.014;20.466;2023-04-16T13:07:41;8.95;;;5.35;;
57746;SDS011;43580;44.014;20.466;2023-04-16T13:10:12;21.27;;;9.63;;
57746;SDS011;43580;44.014;20.466;2023-04-16T13:12:38;18.40;;;12.68;;
57746;SDS011;43580;44.014;20.466;2023-04-16T13:15:04;58.80;;;32.97;;
57746;SDS011;43580;44.014;20.466;2023-04-16T13:17:33;58.15;;;31.45;;
57746;SDS011;43580;44.014;20.466;2023-04-16T13:19:59;26.70;;;16.05;;
57746;SDS011;43580;44.014;20.466;2023-04-16T13:22:25;27.40;;;16.10;;
57746;SDS011;43580;44.014;20.466;2023-04-16T13:24:51;19.58;;;11.38;;
57746;SDS011;43580;44.014;20.466;2023-04-16T13:27:17;23.20;;;12.45;;
57746;SDS011;43580;44.014;20.466;2023-04-16T13:29:44;13.18;;;7.32;;
57746;SDS011;43580;44.014;20.466;2023-04-16T13:32:11;13.10;;;6.97;;
57746;SDS011;43580;44.014;20.466;2023-04-16T13:34:38;14.57;;;9.00;;
57746;SDS011;43580;44.014;20.466;2023-04-16T13:37:04;15.10;;;10.40;;
57746;SDS011;43580;44.014;20.466;2023-04-16T13:39:32;38.30;;;21.77;;
57746;SDS011;43580;44.014;20.466;2023-04-16T13:41:58;206.00;;;105.60;;
57746;SDS011;43580;44.014;20.466;2023-04-16T13:44:24;113.95;;;53.20;;
57746;SDS011;43580;44.014;20.466;2023-04-16T13:46:51;22.33;;;11.63;;
57746;SDS011;43580;44.014;20.466;2023-04-16T13:49:17;13.40;;;6.55;;
57746;SDS011;43580;44.014;20.466;2023-04-16T13:51:43;8.40;;;4.80;;
57746;SDS011;43580;44.014;20.466;2023-04-16T13:54:09;9.75;;;5.93;;
57746;SDS011;43580;44.014;20.466;2023-04-16T13:56:35;10.13;;;6.30;;
57746;SDS011;43580;44.014;20.466;2023-04-16T13:59:01;14.77;;;7.72;;
57746;SDS011;43580;44.014;20.466;2023-04-16T14:01:27;11.95;;;5.97;;
57746;SDS011;43580;44.014;20.466;2023-04-16T14:03:53;12.20;;;6.45;;
57746;SDS011;43580;44.014;20.466;2023-04-16T14:06:19;39.80;;;20.58;;
57746;SDS011;43580;44.014;20.466;2023-04-16T14:08:46;12.55;;;7.03;;
57746;SDS011;43580;44.014;20.466;2023-04-16T14:11:12;11.27;;;6.55;;
57746;SDS011;43580;44.014;20.466;2023-04-16T14:13:38;10.05;;;6.43;;
57746;SDS011;43580;44.014;20.466;2023-04-16T14:16:04;12.60;;;7.05;;
57746;SDS011;43580;44.014;20.466;2023-04-16T14:18:30;10.30;;;6.05;;